sensor_id;sensor_type;location;lat;lon;timestamp;pressure;altitude;pressure_sealevel;temperature
34961;BMP280;30789;52.030;7.110;2022-07-05T00:01:07;101209.06;;;16.70
34961;BMP280;30789;52.030;7.110;2022-07-05T00:03:34;101208.31;;;16.67
34961;BMP280;30789;52.030;7.110;2022-07-05T00:06:02;101196.91;;;16.69
34961;BMP280;30789;52.030;7.110;2022-07-05T00:08:28;101201.28;;;16.69
34961;BMP280;30789;52.030;7.110;2022-07-05T00:10:55;101201.31;;;16.67
34961;BMP280;30789;52.030;7.110;2022-07-05T00:13:21;101199.94;;;16.58
34961;BMP280;30789;52.030;7.110;2022-07-05T00:15:48;101197.59;;;16.52
34961;BMP280;30789;52.030;7.110;2022-07-05T00:18:15;101207.81;;;16.57
34961;BMP280;30789;52.030;7.110;2022-07-05T00:20:42;101206.81;;;16.61
34961;BMP280;30789;52.030;7.110;2022-07-05T00:23:10;101201.69;;;16.58
34961;BMP280;30789;52.030;7.110;2022-07-05T00:25:36;101204.25;;;16.59
34961;BMP280;30789;52.030;7.110;2022-07-05T00:28:03;101203.06;;;16.46
34961;BMP280;30789;52.030;7.110;2022-07-05T00:30:30;101205.56;;;16.48
34961;BMP280;30789;52.030;7.110;2022-07-05T00:32:56;101199.66;;;16.44
34961;BMP280;30789;52.030;7.110;2022-07-05T00:35:23;101202.06;;;16.49
34961;BMP280;30789;52.030;7.110;2022-07-05T00:37:49;101205.72;;;16.45
34961;BMP280;30789;52.030;7.110;2022-07-05T00:40:17;101213.59;;;16.43
34961;BMP280;30789;52.030;7.110;2022-07-05T00:42:44;101211.03;;;16.42
34961;BMP280;30789;52.030;7.110;2022-07-05T00:45:11;101218.34;;;16.34
34961;BMP280;30789;52.030;7.110;2022-07-05T00:47:37;101207.72;;;16.38
34961;BMP280;30789;52.030;7.110;2022-07-05T00:50:05;101218.53;;;16.29
34961;BMP280;30789;52.030;7.110;2022-07-05T00:52:31;101214.09;;;16.31
34961;BMP280;30789;52.030;7.110;2022-07-05T00:54:58;101211.38;;;16.34
34961;BMP280;30789;52.030;7.110;2022-07-05T00:57:26;101211.63;;;16.28
34961;BMP280;30789;52.030;7.110;2022-07-05T00:59:53;101213.44;;;16.26
34961;BMP280;30789;52.030;7.110;2022-07-05T01:02:19;101208.72;;;16.14
34961;BMP280;30789;52.030;7.110;2022-07-05T01:04:49;101205.44;;;16.09
34961;BMP280;30789;52.030;7.110;2022-07-05T01:07:18;101201.38;;;16.02
34961;BMP280;30789;52.030;7.110;2022-07-05T01:09:45;101214.47;;;16.00
34961;BMP280;30789;52.030;7.110;2022-07-05T01:12:12;101209.44;;;15.96
34961;BMP280;30789;52.030;7.110;2022-07-05T01:14:41;101215.06;;;15.85
34961;BMP280;30789;52.030;7.110;2022-07-05T01:17:08;101206.03;;;15.94
34961;BMP280;30789;52.030;7.110;2022-07-05T01:19:34;101204.63;;;15.85
34961;BMP280;30789;52.030;7.110;2022-07-05T01:22:02;101210.63;;;15.87
34961;BMP280;30789;52.030;7.110;2022-07-05T01:24:31;101205.84;;;15.76
34961;BMP280;30789;52.030;7.110;2022-07-05T01:26:58;101206.25;;;15.66
34961;BMP280;30789;52.030;7.110;2022-07-05T01:29:24;101201.03;;;15.66
34961;BMP280;30789;52.030;7.110;2022-07-05T01:31:52;101206.06;;;15.70
34961;BMP280;30789;52.030;7.110;2022-07-05T01:34:19;101208.53;;;15.50
34961;BMP280;30789;52.030;7.110;2022-07-05T01:36:45;101216.34;;;15.50
34961;BMP280;30789;52.030;7.110;2022-07-05T01:39:12;101216.34;;;15.50
34961;BMP280;30789;52.030;7.110;2022-07-05T01:41:40;101207.00;;;15.44
34961;BMP280;30789;52.030;7.110;2022-07-05T01:44:06;101203.72;;;15.39
34961;BMP280;30789;52.030;7.110;2022-07-05T01:46:33;101202.00;;;15.38
34961;BMP280;30789;52.030;7.110;2022-07-05T01:49:06;101202.19;;;15.34
34961;BMP280;30789;52.030;7.110;2022-07-05T01:51:34;101201.38;;;15.32
34961;BMP280;30789;52.030;7.110;2022-07-05T01:54:04;101203.25;;;15.28
34961;BMP280;30789;52.030;7.110;2022-07-05T01:56:31;101197.16;;;15.29
34961;BMP280;30789;52.030;7.110;2022-07-05T01:58:59;101207.16;;;15.17
34961;BMP280;30789;52.030;7.110;2022-07-05T02:01:33;101207.03;;;15.20
34961;BMP280;30789;52.030;7.110;2022-07-05T02:04:01;101204.72;;;15.12
34961;BMP280;30789;52.030;7.110;2022-07-05T02:06:27;101207.25;;;15.14
34961;BMP280;30789;52.030;7.110;2022-07-05T02:08:54;101212.38;;;15.17
34961;BMP280;30789;52.030;7.110;2022-07-05T02:11:21;101207.84;;;14.97
34961;BMP280;30789;52.030;7.110;2022-07-05T02:13:47;101207.81;;;14.98
34961;BMP280;30789;52.030;7.110;2022-07-05T02:16:15;101204.97;;;15.05
34961;BMP280;30789;52.030;7.110;2022-07-05T02:18:41;101209.97;;;15.11
34961;BMP280;30789;52.030;7.110;2022-07-05T02:21:08;101205.53;;;15.13
34961;BMP280;30789;52.030;7.110;2022-07-05T02:23:34;101213.44;;;15.11
34961;BMP280;30789;52.030;7.110;2022-07-05T02:26:01;101205.25;;;14.97
34961;BMP280;30789;52.030;7.110;2022-07-05T02:28:28;101209.75;;;14.92
34961;BMP280;30789;52.030;7.110;2022-07-05T02:30:54;101213.72;;;14.77
34961;BMP280;30789;52.030;7.110;2022-07-05T02:33:22;101215.59;;;14.74
34961;BMP280;30789;52.030;7.110;2022-07-05T02:35:48;101214.69;;;14.75
34961;BMP280;30789;52.030;7.110;2022-07-05T02:38:15;101218.25;;;14.72
34961;BMP280;30789;52.030;7.110;2022-07-05T02:40:41;101221.69;;;14.73
34961;BMP280;30789;52.030;7.110;2022-07-05T02:43:08;101218.28;;;14.71
34961;BMP280;30789;52.030;7.110;2022-07-05T02:45:34;101206.94;;;14.47
34961;BMP280;30789;52.030;7.110;2022-07-05T02:48:01;101210.34;;;14.49
34961;BMP280;30789;52.030;7.110;2022-07-05T02:50:29;101215.31;;;14.56
34961;BMP280;30789;52.030;7.110;2022-07-05T02:52:55;101210.13;;;14.56
34961;BMP280;30789;52.030;7.110;2022-07-05T02:55:22;101214.47;;;14.56
34961;BMP280;30789;52.030;7.110;2022-07-05T02:57:48;101215.84;;;14.40
34961;BMP280;30789;52.030;7.110;2022-07-05T03:00:15;101221.22;;;14.34
34961;BMP280;30789;52.030;7.110;2022-07-05T03:02:42;101229.22;;;14.28
34961;BMP280;30789;52.030;7.110;2022-07-05T03:05:08;101223.06;;;14.30
34961;BMP280;30789;52.030;7.110;2022-07-05T03:07:36;101233.50;;;14.29
34961;BMP280;30789;52.030;7.110;2022-07-05T03:10:03;101228.63;;;14.19
34961;BMP280;30789;52.030;7.110;2022-07-05T03:12:30;101230.38;;;14.19
34961;BMP280;30789;52.030;7.110;2022-07-05T03:14:56;101235.75;;;14.13
34961;BMP280;30789;52.030;7.110;2022-07-05T03:17:23;101233.72;;;14.22
34961;BMP280;30789;52.030;7.110;2022-07-05T03:19:49;101234.59;;;14.21
34961;BMP280;30789;52.030;7.110;2022-07-05T03:22:16;101234.78;;;14.15
34961;BMP280;30789;52.030;7.110;2022-07-05T03:24:43;101233.50;;;14.02
34961;BMP280;30789;52.030;7.110;2022-07-05T03:27:10;101232.38;;;14.09
34961;BMP280;30789;52.030;7.110;2022-07-05T03:29:36;101234.91;;;14.12
34961;BMP280;30789;52.030;7.110;2022-07-05T03:32:03;101241.03;;;14.10
34961;BMP280;30789;52.030;7.110;2022-07-05T03:34:30;101237.72;;;14.05
34961;BMP280;30789;52.030;7.110;2022-07-05T03:36:56;101231.69;;;14.04
34961;BMP280;30789;52.030;7.110;2022-07-05T03:39:23;101229.78;;;14.09
34961;BMP280;30789;52.030;7.110;2022-07-05T03:41:51;101233.56;;;13.99
34961;BMP280;30789;52.030;7.110;2022-07-05T03:44:18;101230.91;;;14.02
34961;BMP280;30789;52.030;7.110;2022-07-05T03:46:44;101234.56;;;13.95
34961;BMP280;30789;52.030;7.110;2022-07-05T03:49:11;101234.56;;;13.95
34961;BMP280;30789;52.030;7.110;2022-07-05T03:51:37;101243.06;;;14.00
34961;BMP280;30789;52.030;7.110;2022-07-05T03:54:04;101241.41;;;13.98
34961;BMP280;30789;52.030;7.110;2022-07-05T03:56:30;101248.97;;;14.05
34961;BMP280;30789;52.030;7.110;2022-07-05T03:58:58;101241.88;;;14.10
34961;BMP280;30789;52.030;7.110;2022-07-05T04:01:24;101243.53;;;14.14
34961;BMP280;30789;52.030;7.110;2022-07-05T04:03:51;101242.75;;;14.11
34961;BMP280;30789;52.030;7.110;2022-07-05T04:06:18;101247.06;;;14.12
34961;BMP280;30789;52.030;7.110;2022-07-05T04:08:44;101250.59;;;14.09
34961;BMP280;30789;52.030;7.110;2022-07-05T04:11:11;101241.09;;;14.08
34961;BMP280;30789;52.030;7.110;2022-07-05T04:13:39;101248.56;;;14.19
34961;BMP280;30789;52.030;7.110;2022-07-05T04:16:07;101248.56;;;14.19
34961;BMP280;30789;52.030;7.110;2022-07-05T04:18:33;101252.81;;;14.21
34961;BMP280;30789;52.030;7.110;2022-07-05T04:21:00;101260.72;;;14.18
34961;BMP280;30789;52.030;7.110;2022-07-05T04:23:27;101252.06;;;14.18
34961;BMP280;30789;52.030;7.110;2022-07-05T04:25:54;101250.84;;;14.30
34961;BMP280;30789;52.030;7.110;2022-07-05T04:28:21;101249.66;;;14.40
34961;BMP280;30789;52.030;7.110;2022-07-05T04:30:47;101257.19;;;14.49
34961;BMP280;30789;52.030;7.110;2022-07-05T04:33:15;101256.50;;;14.44
34961;BMP280;30789;52.030;7.110;2022-07-05T04:35:42;101254.94;;;14.37
34961;BMP280;30789;52.030;7.110;2022-07-05T04:38:08;101260.66;;;14.49
34961;BMP280;30789;52.030;7.110;2022-07-05T04:40:35;101255.91;;;14.62
34961;BMP280;30789;52.030;7.110;2022-07-05T04:43:01;101261.19;;;14.59
34961;BMP280;30789;52.030;7.110;2022-07-05T04:45:28;101261.19;;;14.59
34961;BMP280;30789;52.030;7.110;2022-07-05T04:47:54;101256.34;;;14.75
34961;BMP280;30789;52.030;7.110;2022-07-05T04:50:22;101262.91;;;14.86
34961;BMP280;30789;52.030;7.110;2022-07-05T04:52:48;101261.16;;;14.87
34961;BMP280;30789;52.030;7.110;2022-07-05T04:55:15;101257.56;;;14.89
34961;BMP280;30789;52.030;7.110;2022-07-05T04:57:42;101260.44;;;15.07
34961;BMP280;30789;52.030;7.110;2022-07-05T05:00:11;101266.38;;;15.12
34961;BMP280;30789;52.030;7.110;2022-07-05T05:02:38;101263.47;;;15.19
34961;BMP280;30789;52.030;7.110;2022-07-05T05:05:06;101271.25;;;15.21
34961;BMP280;30789;52.030;7.110;2022-07-05T05:07:34;101272.53;;;15.34
34961;BMP280;30789;52.030;7.110;2022-07-05T05:10:03;101267.09;;;15.40
34961;BMP280;30789;52.030;7.110;2022-07-05T05:12:30;101266.94;;;15.44
34961;BMP280;30789;52.030;7.110;2022-07-05T05:14:56;101261.50;;;15.51
34961;BMP280;30789;52.030;7.110;2022-07-05T05:17:23;101264.66;;;15.60
34961;BMP280;30789;52.030;7.110;2022-07-05T05:19:49;101265.00;;;15.74
34961;BMP280;30789;52.030;7.110;2022-07-05T05:22:16;101274.25;;;15.83
34961;BMP280;30789;52.030;7.110;2022-07-05T05:24:43;101273.16;;;15.89
34961;BMP280;30789;52.030;7.110;2022-07-05T05:27:10;101276.44;;;15.94
34961;BMP280;30789;52.030;7.110;2022-07-05T05:29:36;101276.09;;;16.03
34961;BMP280;30789;52.030;7.110;2022-07-05T05:32:03;101277.41;;;16.14
34961;BMP280;30789;52.030;7.110;2022-07-05T05:34:30;101276.72;;;16.09
34961;BMP280;30789;52.030;7.110;2022-07-05T05:36:56;101281.56;;;16.18
34961;BMP280;30789;52.030;7.110;2022-07-05T05:39:23;101284.38;;;16.36
34961;BMP280;30789;52.030;7.110;2022-07-05T05:41:51;101276.50;;;16.37
34961;BMP280;30789;52.030;7.110;2022-07-05T05:44:17;101293.41;;;16.49
34961;BMP280;30789;52.030;7.110;2022-07-05T05:46:44;101294.66;;;16.62
34961;BMP280;30789;52.030;7.110;2022-07-05T05:49:10;101297.53;;;16.54
34961;BMP280;30789;52.030;7.110;2022-07-05T05:51:36;101292.72;;;16.67
34961;BMP280;30789;52.030;7.110;2022-07-05T05:54:03;101293.59;;;16.88
34961;BMP280;30789;52.030;7.110;2022-07-05T05:56:30;101291.41;;;16.99
34961;BMP280;30789;52.030;7.110;2022-07-05T05:58:58;101293.75;;;17.05
34961;BMP280;30789;52.030;7.110;2022-07-05T06:01:24;101306.16;;;17.00
34961;BMP280;30789;52.030;7.110;2022-07-05T06:03:51;101312.69;;;17.10
34961;BMP280;30789;52.030;7.110;2022-07-05T06:06:17;101305.00;;;17.07
34961;BMP280;30789;52.030;7.110;2022-07-05T06:08:44;101313.94;;;17.22
34961;BMP280;30789;52.030;7.110;2022-07-05T06:11:10;101309.69;;;17.19
34961;BMP280;30789;52.030;7.110;2022-07-05T06:13:36;101314.75;;;17.02
34961;BMP280;30789;52.030;7.110;2022-07-05T06:16:05;101316.88;;;17.14
34961;BMP280;30789;52.030;7.110;2022-07-05T06:18:32;101314.13;;;17.17
34961;BMP280;30789;52.030;7.110;2022-07-05T06:20:59;101305.50;;;17.15
34961;BMP280;30789;52.030;7.110;2022-07-05T06:23:25;101301.56;;;17.45
34961;BMP280;30789;52.030;7.110;2022-07-05T06:25:52;101303.75;;;17.56
34961;BMP280;30789;52.030;7.110;2022-07-05T06:28:18;101308.38;;;17.70
34961;BMP280;30789;52.030;7.110;2022-07-05T06:30:45;101321.53;;;17.68
34961;BMP280;30789;52.030;7.110;2022-07-05T06:33:13;101321.44;;;17.70
34961;BMP280;30789;52.030;7.110;2022-07-05T06:35:39;101322.63;;;17.63
34961;BMP280;30789;52.030;7.110;2022-07-05T06:38:07;101323.97;;;17.92
34961;BMP280;30789;52.030;7.110;2022-07-05T06:40:35;101328.00;;;17.99
34961;BMP280;30789;52.030;7.110;2022-07-05T06:43:03;101328.63;;;18.04
34961;BMP280;30789;52.030;7.110;2022-07-05T06:45:31;101322.53;;;17.84
34961;BMP280;30789;52.030;7.110;2022-07-05T06:47:58;101331.44;;;17.99
34961;BMP280;30789;52.030;7.110;2022-07-05T06:50:28;101318.75;;;18.10
34961;BMP280;30789;52.030;7.110;2022-07-05T06:52:54;101326.38;;;17.96
34961;BMP280;30789;52.030;7.110;2022-07-05T06:55:21;101326.66;;;18.28
34961;BMP280;30789;52.030;7.110;2022-07-05T06:57:48;101324.09;;;18.26
34961;BMP280;30789;52.030;7.110;2022-07-05T07:00:15;101330.69;;;18.16
34961;BMP280;30789;52.030;7.110;2022-07-05T07:02:42;101330.81;;;18.13
34961;BMP280;30789;52.030;7.110;2022-07-05T07:05:08;101332.50;;;18.33
34961;BMP280;30789;52.030;7.110;2022-07-05T07:07:36;101329.56;;;18.21
34961;BMP280;30789;52.030;7.110;2022-07-05T07:10:20;101336.84;;;18.15
34961;BMP280;30789;52.030;7.110;2022-07-05T07:12:47;101339.16;;;18.02
34961;BMP280;30789;52.030;7.110;2022-07-05T07:15:13;101337.97;;;18.09
34961;BMP280;30789;52.030;7.110;2022-07-05T07:17:40;101333.31;;;18.16
34961;BMP280;30789;52.030;7.110;2022-07-05T07:20:07;101330.88;;;18.30
34961;BMP280;30789;52.030;7.110;2022-07-05T07:22:34;101333.59;;;18.29
34961;BMP280;30789;52.030;7.110;2022-07-05T07:25:02;101336.84;;;18.34
34961;BMP280;30789;52.030;7.110;2022-07-05T07:27:30;101332.28;;;18.37
34961;BMP280;30789;52.030;7.110;2022-07-05T07:29:57;101340.88;;;18.41
34961;BMP280;30789;52.030;7.110;2022-07-05T07:32:23;101336.56;;;18.58
34961;BMP280;30789;52.030;7.110;2022-07-05T07:34:49;101335.97;;;18.52
34961;BMP280;30789;52.030;7.110;2022-07-05T07:37:16;101345.28;;;18.59
34961;BMP280;30789;52.030;7.110;2022-07-05T07:39:44;101344.50;;;18.74
34961;BMP280;30789;52.030;7.110;2022-07-05T07:42:12;101351.47;;;18.92
34961;BMP280;30789;52.030;7.110;2022-07-05T07:44:38;101347.19;;;19.09
34961;BMP280;30789;52.030;7.110;2022-07-05T07:47:05;101348.53;;;18.81
34961;BMP280;30789;52.030;7.110;2022-07-05T07:49:31;101341.28;;;18.86
34961;BMP280;30789;52.030;7.110;2022-07-05T07:51:58;101347.81;;;18.96
34961;BMP280;30789;52.030;7.110;2022-07-05T07:54:24;101349.97;;;19.05
34961;BMP280;30789;52.030;7.110;2022-07-05T07:56:51;101342.94;;;18.89
34961;BMP280;30789;52.030;7.110;2022-07-05T07:59:19;101346.16;;;18.94
34961;BMP280;30789;52.030;7.110;2022-07-05T08:01:45;101344.09;;;19.00
34961;BMP280;30789;52.030;7.110;2022-07-05T08:04:13;101351.59;;;19.08
34961;BMP280;30789;52.030;7.110;2022-07-05T08:06:39;101343.25;;;19.17
34961;BMP280;30789;52.030;7.110;2022-07-05T08:09:06;101344.41;;;19.29
34961;BMP280;30789;52.030;7.110;2022-07-05T08:11:32;101348.81;;;19.11
34961;BMP280;30789;52.030;7.110;2022-07-05T08:13:59;101345.47;;;19.42
34961;BMP280;30789;52.030;7.110;2022-07-05T08:16:27;101342.63;;;19.29
34961;BMP280;30789;52.030;7.110;2022-07-05T08:18:53;101335.78;;;19.44
34961;BMP280;30789;52.030;7.110;2022-07-05T08:21:37;101348.56;;;19.67
34961;BMP280;30789;52.030;7.110;2022-07-05T08:24:05;101352.72;;;19.71
34961;BMP280;30789;52.030;7.110;2022-07-05T08:26:32;101345.31;;;19.79
34961;BMP280;30789;52.030;7.110;2022-07-05T08:28:59;101351.69;;;20.07
34961;BMP280;30789;52.030;7.110;2022-07-05T08:31:28;101349.75;;;20.26
34961;BMP280;30789;52.030;7.110;2022-07-05T08:33:56;101350.34;;;20.00
34961;BMP280;30789;52.030;7.110;2022-07-05T08:36:22;101345.94;;;20.16
34961;BMP280;30789;52.030;7.110;2022-07-05T08:38:49;101345.69;;;20.05
34961;BMP280;30789;52.030;7.110;2022-07-05T08:41:17;101347.22;;;20.09
34961;BMP280;30789;52.030;7.110;2022-07-05T08:43:45;101348.47;;;20.02
34961;BMP280;30789;52.030;7.110;2022-07-05T08:46:14;101344.19;;;20.16
34961;BMP280;30789;52.030;7.110;2022-07-05T08:48:43;101347.63;;;20.01
34961;BMP280;30789;52.030;7.110;2022-07-05T08:51:11;101345.00;;;20.01
34961;BMP280;30789;52.030;7.110;2022-07-05T08:53:39;101347.63;;;20.01
34961;BMP280;30789;52.030;7.110;2022-07-05T08:56:07;101345.94;;;20.00
34961;BMP280;30789;52.030;7.110;2022-07-05T08:58:35;101348.56;;;20.00
34961;BMP280;30789;52.030;7.110;2022-07-05T09:01:02;101353.44;;;19.91
34961;BMP280;30789;52.030;7.110;2022-07-05T09:03:32;101347.72;;;20.31
34961;BMP280;30789;52.030;7.110;2022-07-05T09:06:01;101349.72;;;20.43
34961;BMP280;30789;52.030;7.110;2022-07-05T09:08:30;101344.28;;;20.78
34961;BMP280;30789;52.030;7.110;2022-07-05T09:11:00;101354.00;;;20.91
34961;BMP280;30789;52.030;7.110;2022-07-05T09:13:27;101346.47;;;20.85
34961;BMP280;30789;52.030;7.110;2022-07-05T09:15:53;101345.50;;;21.02
34961;BMP280;30789;52.030;7.110;2022-07-05T09:18:40;101343.53;;;21.35
34961;BMP280;30789;52.030;7.110;2022-07-05T09:21:19;101345.91;;;21.10
34961;BMP280;30789;52.030;7.110;2022-07-05T09:23:53;101346.00;;;21.09
34961;BMP280;30789;52.030;7.110;2022-07-05T09:26:21;101348.03;;;21.03
34961;BMP280;30789;52.030;7.110;2022-07-05T09:28:54;101344.00;;;20.98
34961;BMP280;30789;52.030;7.110;2022-07-05T09:31:28;101346.50;;;21.15
34961;BMP280;30789;52.030;7.110;2022-07-05T09:34:03;101337.16;;;21.10
34961;BMP280;30789;52.030;7.110;2022-07-05T09:36:51;101349.63;;;21.36
34961;BMP280;30789;52.030;7.110;2022-07-05T09:39:18;101347.59;;;21.55
34961;BMP280;30789;52.030;7.110;2022-07-05T09:41:44;101341.06;;;22.05
34961;BMP280;30789;52.030;7.110;2022-07-05T09:44:11;101339.38;;;22.45
34961;BMP280;30789;52.030;7.110;2022-07-05T09:46:49;101339.06;;;22.22
34961;BMP280;30789;52.030;7.110;2022-07-05T09:49:25;101344.72;;;21.88
34961;BMP280;30789;52.030;7.110;2022-07-05T09:51:52;101346.03;;;21.67
34961;BMP280;30789;52.030;7.110;2022-07-05T09:54:21;101343.56;;;21.50
34961;BMP280;30789;52.030;7.110;2022-07-05T09:56:48;101350.19;;;21.27
34961;BMP280;30789;52.030;7.110;2022-07-05T09:59:16;101348.75;;;21.51
34961;BMP280;30789;52.030;7.110;2022-07-05T10:01:44;101348.53;;;21.54
34961;BMP280;30789;52.030;7.110;2022-07-05T10:04:10;101350.81;;;21.74
34961;BMP280;30789;52.030;7.110;2022-07-05T10:06:37;101355.53;;;21.69
34961;BMP280;30789;52.030;7.110;2022-07-05T10:09:05;101352.78;;;21.57
34961;BMP280;30789;52.030;7.110;2022-07-05T10:11:32;101358.00;;;21.42
34961;BMP280;30789;52.030;7.110;2022-07-05T10:14:03;101359.47;;;21.76
34961;BMP280;30789;52.030;7.110;2022-07-05T10:16:30;101351.00;;;21.57
34961;BMP280;30789;52.030;7.110;2022-07-05T10:18:56;101356.34;;;21.56
34961;BMP280;30789;52.030;7.110;2022-07-05T10:21:24;101355.97;;;21.62
34961;BMP280;30789;52.030;7.110;2022-07-05T10:23:52;101351.84;;;22.14
34961;BMP280;30789;52.030;7.110;2022-07-05T10:26:23;101354.25;;;22.46
34961;BMP280;30789;52.030;7.110;2022-07-05T10:28:52;101355.84;;;22.07
34961;BMP280;30789;52.030;7.110;2022-07-05T10:31:19;101346.25;;;22.06
34961;BMP280;30789;52.030;7.110;2022-07-05T10:33:45;101353.16;;;21.79
34961;BMP280;30789;52.030;7.110;2022-07-05T10:36:13;101357.97;;;21.58
34961;BMP280;30789;52.030;7.110;2022-07-05T10:38:41;101354.16;;;21.48
34961;BMP280;30789;52.030;7.110;2022-07-05T10:41:11;101352.94;;;21.39
34961;BMP280;30789;52.030;7.110;2022-07-05T10:43:40;101348.66;;;21.67
34961;BMP280;30789;52.030;7.110;2022-07-05T10:46:08;101347.63;;;21.83
34961;BMP280;30789;52.030;7.110;2022-07-05T10:48:35;101348.03;;;22.20
34961;BMP280;30789;52.030;7.110;2022-07-05T10:51:14;101351.91;;;22.00
34961;BMP280;30789;52.030;7.110;2022-07-05T10:54:00;101346.69;;;21.84
34961;BMP280;30789;52.030;7.110;2022-07-05T10:56:27;101342.81;;;21.90
34961;BMP280;30789;52.030;7.110;2022-07-05T10:59:04;101343.13;;;22.14
34961;BMP280;30789;52.030;7.110;2022-07-05T11:01:37;101347.72;;;21.68
34961;BMP280;30789;52.030;7.110;2022-07-05T11:04:23;101348.13;;;22.86
34961;BMP280;30789;52.030;7.110;2022-07-05T11:06:52;101343.53;;;24.29
34961;BMP280;30789;52.030;7.110;2022-07-05T11:09:20;101342.00;;;24.98
34961;BMP280;30789;52.030;7.110;2022-07-05T11:12:01;101329.03;;;25.41
34961;BMP280;30789;52.030;7.110;2022-07-05T11:14:34;101324.97;;;25.93
34961;BMP280;30789;52.030;7.110;2022-07-05T11:17:13;101324.28;;;26.88
34961;BMP280;30789;52.030;7.110;2022-07-05T11:20:04;101320.13;;;25.53
34961;BMP280;30789;52.030;7.110;2022-07-05T11:22:32;101330.03;;;25.16
34961;BMP280;30789;52.030;7.110;2022-07-05T11:25:00;101334.53;;;23.95
34961;BMP280;30789;52.030;7.110;2022-07-05T11:27:27;101323.78;;;23.48
34961;BMP280;30789;52.030;7.110;2022-07-05T11:29:56;101317.81;;;23.44
34961;BMP280;30789;52.030;7.110;2022-07-05T11:32:26;101324.34;;;24.27
34961;BMP280;30789;52.030;7.110;2022-07-05T11:35:12;101320.59;;;25.01
34961;BMP280;30789;52.030;7.110;2022-07-05T11:37:57;101317.03;;;25.59
34961;BMP280;30789;52.030;7.110;2022-07-05T11:40:32;101314.38;;;25.70
34961;BMP280;30789;52.030;7.110;2022-07-05T11:42:59;101315.59;;;25.77
34961;BMP280;30789;52.030;7.110;2022-07-05T11:45:29;101307.88;;;26.62
34961;BMP280;30789;52.030;7.110;2022-07-05T11:47:56;101306.25;;;27.44
34961;BMP280;30789;52.030;7.110;2022-07-05T11:50:31;101306.19;;;28.45
34961;BMP280;30789;52.030;7.110;2022-07-05T11:52:58;101308.41;;;28.20
34961;BMP280;30789;52.030;7.110;2022-07-05T11:55:26;101305.34;;;27.85
34961;BMP280;30789;52.030;7.110;2022-07-05T11:57:55;101302.47;;;27.67
34961;BMP280;30789;52.030;7.110;2022-07-05T12:00:38;101288.03;;;27.60
34961;BMP280;30789;52.030;7.110;2022-07-05T12:03:10;101286.84;;;27.74
34961;BMP280;30789;52.030;7.110;2022-07-05T12:05:37;101301.59;;;27.97
34961;BMP280;30789;52.030;7.110;2022-07-05T12:08:05;101290.75;;;28.19
34961;BMP280;30789;52.030;7.110;2022-07-05T12:10:31;101288.34;;;27.67
34961;BMP280;30789;52.030;7.110;2022-07-05T12:13:16;101298.53;;;28.90
34961;BMP280;30789;52.030;7.110;2022-07-05T12:15:44;101282.28;;;27.95
34961;BMP280;30789;52.030;7.110;2022-07-05T12:18:11;101285.91;;;26.71
34961;BMP280;30789;52.030;7.110;2022-07-05T12:20:39;101276.53;;;26.56
34961;BMP280;30789;52.030;7.110;2022-07-05T12:23:07;101259.28;;;26.93
34961;BMP280;30789;52.030;7.110;2022-07-05T12:25:34;101288.53;;;27.03
34961;BMP280;30789;52.030;7.110;2022-07-05T12:28:01;101286.03;;;26.70
34961;BMP280;30789;52.030;7.110;2022-07-05T12:30:31;101290.00;;;27.17
34961;BMP280;30789;52.030;7.110;2022-07-05T12:33:00;101286.03;;;27.53
34961;BMP280;30789;52.030;7.110;2022-07-05T12:35:32;101294.19;;;28.01
34961;BMP280;30789;52.030;7.110;2022-07-05T12:38:03;101287.13;;;28.30
34961;BMP280;30789;52.030;7.110;2022-07-05T12:40:31;101275.91;;;26.84
34961;BMP280;30789;52.030;7.110;2022-07-05T12:43:03;101276.03;;;26.94
34961;BMP280;30789;52.030;7.110;2022-07-05T12:45:30;101276.94;;;25.64
34961;BMP280;30789;52.030;7.110;2022-07-05T12:47:58;101281.88;;;25.57
34961;BMP280;30789;52.030;7.110;2022-07-05T12:50:28;101269.19;;;25.27
34961;BMP280;30789;52.030;7.110;2022-07-05T12:53:00;101280.88;;;25.36
34961;BMP280;30789;52.030;7.110;2022-07-05T12:55:47;101277.75;;;25.53
34961;BMP280;30789;52.030;7.110;2022-07-05T12:58:31;101287.03;;;24.66
34961;BMP280;30789;52.030;7.110;2022-07-05T13:00:57;101291.28;;;24.69
34961;BMP280;30789;52.030;7.110;2022-07-05T13:03:24;101289.22;;;24.73
34961;BMP280;30789;52.030;7.110;2022-07-05T13:06:01;101292.19;;;24.33
34961;BMP280;30789;52.030;7.110;2022-07-05T13:08:28;101281.53;;;24.22
34961;BMP280;30789;52.030;7.110;2022-07-05T13:10:55;101292.94;;;24.10
34961;BMP280;30789;52.030;7.110;2022-07-05T13:13:22;101291.38;;;24.07
34961;BMP280;30789;52.030;7.110;2022-07-05T13:15:48;101290.06;;;23.89
34961;BMP280;30789;52.030;7.110;2022-07-05T13:18:23;101291.38;;;24.07
34961;BMP280;30789;52.030;7.110;2022-07-05T13:20:50;101291.00;;;23.88
34961;BMP280;30789;52.030;7.110;2022-07-05T13:23:19;101291.41;;;23.95
34961;BMP280;30789;52.030;7.110;2022-07-05T13:25:46;101291.56;;;24.17
34961;BMP280;30789;52.030;7.110;2022-07-05T13:28:12;101297.31;;;25.06
34961;BMP280;30789;52.030;7.110;2022-07-05T13:30:39;101299.88;;;25.19
34961;BMP280;30789;52.030;7.110;2022-07-05T13:33:05;101300.06;;;24.70
34961;BMP280;30789;52.030;7.110;2022-07-05T13:35:32;101301.41;;;24.51
34961;BMP280;30789;52.030;7.110;2022-07-05T13:37:58;101296.09;;;24.27
34961;BMP280;30789;52.030;7.110;2022-07-05T13:40:26;101297.69;;;24.30
34961;BMP280;30789;52.030;7.110;2022-07-05T13:42:53;101294.81;;;23.84
34961;BMP280;30789;52.030;7.110;2022-07-05T13:45:19;101291.78;;;23.52
34961;BMP280;30789;52.030;7.110;2022-07-05T13:47:46;101304.47;;;22.95
34961;BMP280;30789;52.030;7.110;2022-07-05T13:50:13;101306.22;;;22.82
34961;BMP280;30789;52.030;7.110;2022-07-05T13:52:57;101302.16;;;22.90
34961;BMP280;30789;52.030;7.110;2022-07-05T13:55:24;101299.22;;;23.08
34961;BMP280;30789;52.030;7.110;2022-07-05T13:57:52;101305.53;;;22.92
34961;BMP280;30789;52.030;7.110;2022-07-05T14:00:19;101305.34;;;23.08
34961;BMP280;30789;52.030;7.110;2022-07-05T14:02:45;101304.81;;;23.03